createdAt,value
2022-12-13T00:00:00.799Z,82.86
2022-12-13T00:05:00.295Z,82.79
2022-12-13T00:10:00.499Z,82.70
2022-12-13T00:15:00.275Z,82.82
2022-12-13T00:20:00.383Z,82.68
2022-12-13T00:25:00.279Z,82.99
2022-12-13T00:30:00.337Z,83.30
2022-12-13T00:35:00.333Z,83.26
2022-12-13T00:40:00.305Z,82.99
2022-12-13T00:45:00.366Z,83.11
2022-12-13T00:50:00.396Z,83.20
2022-12-13T00:55:00.427Z,83.52
2022-12-13T01:00:01.637Z,83.51
2022-12-13T01:05:00.305Z,83.75
2022-12-13T01:10:00.291Z,84.11
2022-12-13T01:15:00.448Z,83.94
2022-12-13T01:20:00.459Z,83.60
2022-12-13T01:25:00.295Z,83.48
2022-12-13T01:30:00.420Z,83.93
2022-12-13T01:35:00.275Z,84.02
2022-12-13T01:40:00.306Z,83.82
2022-12-13T01:45:00.292Z,83.70
2022-12-13T01:50:05.269Z,83.62
2022-12-13T01:55:04.007Z,83.86
2022-12-13T02:00:02.120Z,85.00
2022-12-13T02:05:12.848Z,84.03
2022-12-13T02:10:03.091Z,83.93
2022-12-13T02:15:06.578Z,83.92
2022-12-13T02:20:21.691Z,83.29
2022-12-13T02:25:20.184Z,83.38
2022-12-13T02:30:20.242Z,83.33
2022-12-13T02:35:07.018Z,84.20
2022-12-13T02:40:08.932Z,83.88
2022-12-13T02:45:18.660Z,84.83
2022-12-13T02:50:05.068Z,84.86
2022-12-13T02:55:05.874Z,84.34
2022-12-13T03:00:07.402Z,84.90
2022-12-13T03:05:20.251Z,84.48
2022-12-13T03:10:09.981Z,84.70
2022-12-13T03:15:08.835Z,84.95
2022-12-13T03:20:00.769Z,85.11
2022-12-13T03:25:00.683Z,84.97
2022-12-13T03:30:00.326Z,84.58
2022-12-13T03:35:01.055Z,85.19
2022-12-13T03:40:01.098Z,85.16
2022-12-13T03:45:00.278Z,84.87
2022-12-13T03:50:07.591Z,85.05
2022-12-13T03:55:00.288Z,85.61
2022-12-13T04:00:01.892Z,85.62
2022-12-13T04:05:00.698Z,85.18
2022-12-13T04:10:01.195Z,85.01
2022-12-13T04:15:00.290Z,84.58
2022-12-13T04:20:00.542Z,84.59
2022-12-13T04:25:00.483Z,84.74
2022-12-13T04:30:00.352Z,84.83
2022-12-13T04:35:01.667Z,84.78
2022-12-13T04:40:00.688Z,85.39
2022-12-13T04:45:00.301Z,85.02
2022-12-13T04:50:00.416Z,85.10
2022-12-13T04:55:00.306Z,85.57
2022-12-13T05:00:01.126Z,86.13
2022-12-13T05:05:00.304Z,85.86
2022-12-13T05:10:00.308Z,86.11
2022-12-13T05:15:00.315Z,86.20
2022-12-13T05:20:00.407Z,86.38
2022-12-13T05:25:00.298Z,86.28
2022-12-13T05:30:04.274Z,86.09
2022-12-13T05:35:00.337Z,86.00
2022-12-13T05:40:00.405Z,86.01
2022-12-13T05:45:00.319Z,85.96
2022-12-13T05:50:00.275Z,85.63
2022-12-13T05:55:01.201Z,86.22
2022-12-13T06:00:00.628Z,86.01
2022-12-13T06:05:00.303Z,86.05
2022-12-13T06:10:00.757Z,86.03
2022-12-13T06:15:22.232Z,85.62
2022-12-13T06:20:01.662Z,85.51
2022-12-13T06:25:00.411Z,85.43
2022-12-13T06:30:02.656Z,85.33
2022-12-13T06:35:00.351Z,85.23
2022-12-13T06:40:00.267Z,85.31
2022-12-13T06:45:00.387Z,85.43
2022-12-13T06:50:05.263Z,85.19
2022-12-13T06:55:00.499Z,85.13
2022-12-13T07:00:00.751Z,85.20
2022-12-13T07:05:00.296Z,85.20
2022-12-13T07:10:00.496Z,85.13
2022-12-13T07:15:00.352Z,85.52
2022-12-13T07:20:04.603Z,86.11
2022-12-13T07:25:00.446Z,85.66
2022-12-13T07:30:00.660Z,85.86
2022-12-13T07:35:00.290Z,85.77
2022-12-13T07:40:04.311Z,86.15
2022-12-13T07:45:00.980Z,85.79
2022-12-13T07:50:01.670Z,85.76
2022-12-13T07:55:00.370Z,85.93
2022-12-13T08:00:00.887Z,86.05
2022-12-13T08:05:00.401Z,86.12
2022-12-13T08:10:00.376Z,85.93
2022-12-13T08:20:00.568Z,85.89
2022-12-13T08:25:00.405Z,85.88
2022-12-13T08:30:00.407Z,85.72
2022-12-13T08:35:00.309Z,85.72
2022-12-13T08:40:00.310Z,85.48
2022-12-13T08:45:00.361Z,85.59
2022-12-13T08:50:03.199Z,85.31
2022-12-13T08:55:00.360Z,85.20
2022-12-13T09:00:00.857Z,84.98
2022-12-13T09:05:00.322Z,84.85
2022-12-13T09:10:07.188Z,84.71
2022-12-13T09:15:01.264Z,84.08
2022-12-13T09:20:00.524Z,83.79
2022-12-13T09:25:02.401Z,83.80
2022-12-13T09:30:00.841Z,83.65
2022-12-13T09:35:00.331Z,83.75
2022-12-13T09:40:00.415Z,83.32
2022-12-13T09:45:04.243Z,83.23
2022-12-13T09:50:04.320Z,82.92
2022-12-13T09:55:00.480Z,83.02
2022-12-13T10:00:06.660Z,82.92
2022-12-13T10:05:12.580Z,81.77
2022-12-13T10:10:00.404Z,80.39
2022-12-13T10:15:01.696Z,80.38
2022-12-13T10:20:00.583Z,80.06
2022-12-13T10:25:04.176Z,77.74
2022-12-13T10:30:05.874Z,78.82
2022-12-13T10:35:11.300Z,78.55
2022-12-13T10:40:00.280Z,77.81
2022-12-13T10:45:13.765Z,76.37
2022-12-13T10:50:00.370Z,75.24
2022-12-13T10:55:03.975Z,74.98
2022-12-13T11:00:01.901Z,73.62
2022-12-13T11:05:23.257Z,72.75
2022-12-13T11:10:25.178Z,76.13
2022-12-13T11:15:04.343Z,78.76
2022-12-13T11:20:04.102Z,74.57
2022-12-13T11:25:06.741Z,76.09
2022-12-13T11:30:07.389Z,74.33
2022-12-13T11:35:11.260Z,74.48
2022-12-13T11:40:15.718Z,77.41
2022-12-13T11:45:22.482Z,78.30
2022-12-13T11:50:04.222Z,78.36
2022-12-13T11:55:08.777Z,78.69
2022-12-13T12:00:15.915Z,78.97
2022-12-13T12:05:07.411Z,78.71
2022-12-13T12:10:13.557Z,78.92
2022-12-13T12:15:16.298Z,79.05
2022-12-13T12:20:01.307Z,79.36
2022-12-13T12:25:13.526Z,79.63
2022-12-13T12:30:23.817Z,79.54
2022-12-13T12:35:10.255Z,79.28
2022-12-13T12:40:16.956Z,78.14
2022-12-13T12:45:10.670Z,78.00
2022-12-13T12:50:20.200Z,77.49
2022-12-13T12:55:15.214Z,77.46
2022-12-13T13:00:07.364Z,76.52
2022-12-13T13:05:10.001Z,77.37
2022-12-13T13:10:15.907Z,76.96
2022-12-13T13:15:20.189Z,76.46
2022-12-13T13:20:12.144Z,76.91
2022-12-13T13:25:03.544Z,76.81
2022-12-13T13:30:05.424Z,77.13
2022-12-13T13:35:20.287Z,77.63
2022-12-13T13:40:10.250Z,78.16
2022-12-13T13:45:11.923Z,77.63
2022-12-13T13:50:13.620Z,78.51
2022-12-13T13:55:18.974Z,78.22
2022-12-13T14:00:18.193Z,78.23
2022-12-13T14:05:04.592Z,78.60
2022-12-13T14:10:13.579Z,78.82
2022-12-13T14:15:20.185Z,78.64
2022-12-13T14:20:17.165Z,78.87
2022-12-13T14:25:20.201Z,79.46
2022-12-13T14:30:00.651Z,79.61
2022-12-13T14:35:25.838Z,79.78
2022-12-13T14:40:01.642Z,79.81
2022-12-13T14:45:12.201Z,79.99
2022-12-13T14:50:00.546Z,80.14
2022-12-13T14:55:01.656Z,80.29
2022-12-13T15:00:20.401Z,80.52
2022-12-13T15:05:04.496Z,80.78
2022-12-13T15:10:06.652Z,81.33
2022-12-13T15:15:03.601Z,81.41
2022-12-13T15:20:10.424Z,81.57
2022-12-13T15:25:00.608Z,81.55
2022-12-13T15:30:00.536Z,81.76
2022-12-13T15:35:14.171Z,81.63
2022-12-13T15:40:07.328Z,81.71
2022-12-13T15:45:03.894Z,81.87
2022-12-13T15:50:04.571Z,81.90
2022-12-13T16:00:04.019Z,82.34
2022-12-13T16:05:05.092Z,81.86
2022-12-13T16:10:00.572Z,82.20
2022-12-13T16:15:12.978Z,82.38
2022-12-13T16:20:04.661Z,82.21
2022-12-13T16:25:00.377Z,82.23
2022-12-13T16:30:00.434Z,82.38
2022-12-13T16:35:00.429Z,82.26
2022-12-13T16:40:14.790Z,82.27
2022-12-13T16:45:40.205Z,82.27
2022-12-13T16:50:01.855Z,82.29
2022-12-13T16:55:00.260Z,82.32
2022-12-13T17:05:00.563Z,82.34
2022-12-13T17:10:00.379Z,82.41
2022-12-13T17:15:00.476Z,82.76
2022-12-13T17:20:00.461Z,82.65
2022-12-13T17:25:00.624Z,82.21
2022-12-13T17:30:00.783Z,81.99
2022-12-13T17:35:00.866Z,81.75
2022-12-13T17:40:00.317Z,81.43
2022-12-13T17:45:00.286Z,81.24
2022-12-13T17:50:00.279Z,80.98
2022-12-13T17:55:00.351Z,81.10
2022-12-13T18:00:01.855Z,80.87
2022-12-13T18:05:00.401Z,80.95
2022-12-13T18:10:00.288Z,80.98
2022-12-13T18:15:00.495Z,81.18
2022-12-13T18:20:00.522Z,81.23
2022-12-13T18:25:00.289Z,81.42
2022-12-13T18:30:00.328Z,81.55
2022-12-13T18:35:00.379Z,81.69
2022-12-13T18:40:00.314Z,81.73
2022-12-13T18:45:00.383Z,81.70
2022-12-13T18:50:00.600Z,81.58
2022-12-13T18:55:00.308Z,81.65
2022-12-13T19:00:00.860Z,81.63
2022-12-13T19:05:00.307Z,81.51
2022-12-13T19:10:00.486Z,81.34
2022-12-13T19:15:01.708Z,81.22
2022-12-13T19:20:00.405Z,81.27
2022-12-13T19:25:00.374Z,81.39
2022-12-13T19:30:00.488Z,81.36
2022-12-13T19:35:00.324Z,81.39
2022-12-13T19:40:00.298Z,81.41
2022-12-13T19:45:00.320Z,81.49
2022-12-13T19:50:00.388Z,81.60
2022-12-13T19:55:00.296Z,81.59
2022-12-13T20:00:00.951Z,81.69
2022-12-13T20:05:00.306Z,81.78
2022-12-13T20:10:00.308Z,81.72
2022-12-13T20:15:00.331Z,81.40
2022-12-13T20:20:00.522Z,81.39
2022-12-13T20:25:00.291Z,81.30
2022-12-13T20:30:00.397Z,81.09
2022-12-13T20:35:00.328Z,81.27
2022-12-13T20:40:00.350Z,81.39
2022-12-13T20:45:00.304Z,81.45
2022-12-13T20:50:00.423Z,81.44
2022-12-13T20:55:00.314Z,81.38
2022-12-13T21:00:01.080Z,81.24
2022-12-13T21:05:00.279Z,80.97
2022-12-13T21:10:00.424Z,81.06
2022-12-13T21:15:00.336Z,81.17
2022-12-13T21:20:00.451Z,81.10
2022-12-13T21:25:00.282Z,80.69
2022-12-13T21:30:00.298Z,80.74
2022-12-13T21:35:00.540Z,80.51
2022-12-13T21:40:00.308Z,80.45
2022-12-13T21:45:02.309Z,80.69
2022-12-13T21:50:00.531Z,80.65
2022-12-13T21:55:22.199Z,80.64
2022-12-13T22:00:00.800Z,80.69
2022-12-13T22:05:00.299Z,80.79
2022-12-13T22:10:01.112Z,80.27
2022-12-13T22:15:01.355Z,80.72
2022-12-13T22:20:00.413Z,80.74
2022-12-13T22:25:00.378Z,80.90
2022-12-13T22:30:00.345Z,81.13
2022-12-13T22:35:00.376Z,81.28
2022-12-13T22:40:00.370Z,81.43
2022-12-13T22:45:00.332Z,81.50
2022-12-13T22:50:00.437Z,81.51
2022-12-13T22:55:00.315Z,81.56
2022-12-13T23:00:00.782Z,81.55
2022-12-13T23:05:00.322Z,81.62
2022-12-13T23:10:00.344Z,81.57
2022-12-13T23:15:00.347Z,81.40
2022-12-13T23:20:00.474Z,81.39
2022-12-13T23:25:00.280Z,81.01
2022-12-13T23:30:00.357Z,80.57
2022-12-13T23:35:00.279Z,79.45
2022-12-13T23:40:00.322Z,78.79
2022-12-13T23:45:00.307Z,78.84
2022-12-13T23:50:00.559Z,78.91
2022-12-13T23:55:00.307Z,78.30
